createdAt,value
2023-02-03T00:00:42.640Z,3.32
2023-02-03T00:03:09.464Z,3.40
2023-02-03T00:05:37.236Z,3.36
2023-02-03T00:08:05.848Z,3.40
2023-02-03T00:10:34.936Z,3.40
2023-02-03T00:13:01.947Z,3.40
2023-02-03T00:15:28.896Z,3.40
2023-02-03T00:17:55.693Z,3.42
2023-02-03T00:20:22.672Z,3.50
2023-02-03T00:22:49.450Z,3.50
2023-02-03T00:25:16.211Z,3.50
2023-02-03T00:27:43.103Z,3.50
2023-02-03T00:30:11.585Z,3.56
2023-02-03T00:32:38.674Z,3.60
2023-02-03T00:35:05.977Z,3.60
2023-02-03T00:37:32.725Z,3.60
2023-02-03T00:39:59.467Z,3.60
2023-02-03T00:42:26.206Z,3.60
2023-02-03T00:44:52.950Z,3.60
2023-02-03T00:47:19.660Z,3.60
2023-02-03T00:49:46.541Z,3.60
2023-02-03T00:52:13.472Z,3.60
2023-02-03T00:54:40.187Z,3.60
2023-02-03T00:57:06.907Z,3.66
2023-02-03T00:59:33.798Z,3.68
2023-02-03T01:02:00.605Z,3.70
2023-02-03T01:04:27.581Z,3.70
2023-02-03T01:06:57.603Z,3.70
2023-02-03T01:09:24.915Z,3.70
2023-02-03T01:11:53.740Z,3.70
2023-02-03T01:14:20.584Z,3.70
2023-02-03T01:16:47.445Z,3.70
2023-02-03T01:19:14.893Z,3.70
2023-02-03T01:21:41.726Z,3.70
2023-02-03T01:24:09.795Z,3.70
2023-02-03T01:26:38.263Z,3.68
2023-02-03T01:29:05.015Z,3.60
2023-02-03T01:31:39.800Z,3.60
2023-02-03T01:34:11.298Z,3.60
2023-02-03T01:36:39.388Z,3.60
2023-02-03T01:39:06.519Z,3.60
2023-02-03T01:41:37.581Z,3.60
2023-02-03T01:44:43.925Z,3.64
2023-02-03T01:47:29.304Z,3.70
2023-02-03T01:50:11.032Z,3.70
2023-02-03T01:52:41.463Z,3.70
2023-02-03T01:55:12.072Z,3.70
2023-02-03T01:57:50.921Z,3.70
2023-02-03T02:00:18.558Z,3.74
2023-02-03T02:02:47.684Z,3.80
2023-02-03T02:05:25.629Z,3.80
2023-02-03T02:07:52.478Z,3.80
2023-02-03T02:10:19.409Z,3.80
2023-02-03T02:12:48.159Z,3.80
2023-02-03T02:15:15.329Z,3.80
2023-02-03T02:17:59.219Z,3.80
2023-02-03T02:21:23.523Z,3.80
2023-02-03T02:24:17.282Z,3.80
2023-02-03T02:26:59.818Z,3.82
2023-02-03T02:29:57.024Z,3.90
2023-02-03T02:32:27.994Z,3.90
2023-02-03T02:35:03.764Z,3.90
2023-02-03T02:37:52.365Z,3.90
2023-02-03T02:40:28.730Z,3.90
2023-02-03T02:43:12.376Z,3.84
2023-02-03T02:45:56.484Z,3.84
2023-02-03T02:48:40.791Z,3.90
2023-02-03T02:51:12.335Z,3.84
2023-02-03T02:53:46.235Z,3.86
2023-02-03T02:56:15.717Z,3.90
2023-02-03T02:58:47.234Z,3.90
2023-02-03T03:01:16.432Z,3.90
2023-02-03T03:03:45.249Z,3.90
2023-02-03T03:06:19.323Z,3.90
2023-02-03T03:09:15.393Z,3.96
2023-02-03T03:11:50.162Z,4.00
2023-02-03T03:14:20.714Z,4.00
2023-02-03T03:17:05.005Z,4.00
2023-02-03T03:19:46.818Z,4.00
2023-02-03T03:22:16.949Z,4.04
2023-02-03T03:24:50.837Z,4.10
2023-02-03T03:27:24.239Z,4.08
2023-02-03T03:29:53.554Z,4.10
2023-02-03T03:32:20.990Z,4.00
2023-02-03T03:34:48.021Z,4.00
2023-02-03T03:37:30.920Z,4.00
2023-02-03T03:39:59.908Z,4.00
2023-02-03T03:42:33.062Z,4.02
2023-02-03T03:45:06.787Z,4.00
2023-02-03T03:47:39.989Z,4.00
2023-02-03T03:50:12.444Z,4.00
2023-02-03T03:52:40.567Z,4.00
2023-02-03T03:55:10.835Z,4.02
2023-02-03T03:57:44.093Z,4.00
2023-02-03T04:00:15.049Z,4.00
2023-02-03T04:02:44.788Z,4.00
2023-02-03T04:05:13.370Z,4.00
2023-02-03T04:07:45.717Z,4.10
2023-02-03T04:10:16.561Z,4.10
2023-02-03T04:12:43.271Z,4.10
2023-02-03T04:15:09.996Z,4.10
2023-02-03T04:17:36.721Z,4.10
2023-02-03T04:20:06.873Z,4.10
2023-02-03T04:22:33.909Z,4.10
2023-02-03T04:25:00.755Z,4.12
2023-02-03T04:27:28.013Z,4.14
2023-02-03T04:29:54.745Z,4.14
2023-02-03T04:32:21.468Z,4.20
2023-02-03T04:34:48.223Z,4.20
2023-02-03T04:37:14.877Z,4.20
2023-02-03T04:39:41.636Z,4.20
2023-02-03T04:42:08.388Z,4.24
2023-02-03T04:44:35.193Z,4.30
2023-02-03T04:47:01.930Z,4.30
2023-02-03T04:49:28.626Z,4.30
2023-02-03T04:51:55.392Z,4.30
2023-02-03T04:54:22.171Z,4.32
2023-02-03T04:56:49.097Z,4.40
2023-02-03T04:59:15.942Z,4.34
2023-02-03T05:01:42.703Z,4.40
2023-02-03T05:04:09.494Z,4.40
2023-02-03T05:06:36.286Z,4.40
2023-02-03T05:09:03.030Z,4.40
2023-02-03T05:11:29.959Z,4.40
2023-02-03T05:13:56.750Z,4.40
2023-02-03T05:16:23.932Z,4.40
2023-02-03T05:18:50.826Z,4.40
2023-02-03T05:21:17.825Z,4.40
2023-02-03T05:23:44.593Z,4.40
2023-02-03T05:26:11.822Z,4.42
2023-02-03T05:28:38.796Z,4.40
2023-02-03T05:31:05.971Z,4.44
2023-02-03T05:33:32.958Z,4.48
2023-02-03T05:35:59.699Z,4.50
2023-02-03T05:38:26.515Z,4.50
2023-02-03T05:41:11.964Z,4.50
2023-02-03T05:43:38.998Z,4.50
2023-02-03T05:46:07.371Z,4.50
2023-02-03T05:48:34.920Z,4.50
2023-02-03T05:51:02.235Z,4.60
2023-02-03T05:53:29.307Z,4.60
2023-02-03T05:55:56.027Z,4.60
2023-02-03T05:58:22.793Z,4.60
2023-02-03T06:00:49.512Z,4.60
2023-02-03T06:03:16.448Z,4.62
2023-02-03T06:05:44.326Z,4.70
2023-02-03T06:08:11.716Z,4.70
2023-02-03T06:10:38.531Z,4.74
2023-02-03T06:13:14.218Z,4.80
2023-02-03T06:15:41.738Z,4.90
2023-02-03T06:18:09.544Z,5.00
2023-02-03T06:20:36.341Z,5.08
2023-02-03T06:23:03.943Z,5.10
2023-02-03T06:25:32.824Z,5.16
2023-02-03T06:28:00.266Z,5.20
2023-02-03T06:30:27.512Z,5.22
2023-02-03T06:32:55.103Z,5.30
2023-02-03T06:35:21.945Z,5.40
2023-02-03T06:37:48.629Z,5.40
2023-02-03T06:40:15.383Z,5.42
2023-02-03T06:42:46.313Z,5.50
2023-02-03T06:45:13.760Z,5.50
2023-02-03T06:47:45.366Z,5.60
2023-02-03T06:50:14.630Z,5.66
2023-02-03T06:52:41.782Z,5.70
2023-02-03T06:55:08.942Z,5.72
2023-02-03T06:57:35.700Z,5.80
2023-02-03T07:00:02.918Z,5.80
2023-02-03T07:02:29.711Z,5.80
2023-02-03T07:04:56.448Z,5.90
2023-02-03T07:07:23.246Z,5.90
2023-02-03T07:09:49.974Z,5.96
2023-02-03T07:12:16.701Z,6.00
2023-02-03T07:14:43.451Z,6.00
2023-02-03T07:17:10.194Z,6.02
2023-02-03T07:19:36.972Z,6.10
2023-02-03T07:22:03.683Z,6.10
2023-02-03T07:24:30.453Z,6.10
2023-02-03T07:26:57.324Z,6.20
2023-02-03T07:29:24.208Z,6.20
2023-02-03T07:31:51.103Z,6.24
2023-02-03T07:34:18.006Z,6.40
2023-02-03T07:36:44.734Z,6.40
2023-02-03T07:39:11.670Z,6.40
2023-02-03T07:41:38.429Z,6.40
2023-02-03T07:44:05.275Z,6.40
2023-02-03T07:46:32.102Z,6.50
2023-02-03T07:48:59.053Z,6.50
2023-02-03T07:51:25.887Z,6.50
2023-02-03T07:53:52.632Z,6.50
2023-02-03T07:56:19.360Z,6.60
2023-02-03T07:58:46.053Z,6.60
2023-02-03T08:01:16.004Z,6.62
2023-02-03T08:03:43.590Z,6.70
2023-02-03T08:06:10.637Z,6.70
2023-02-03T08:08:37.556Z,6.80
2023-02-03T08:11:04.427Z,6.80
2023-02-03T08:13:31.126Z,6.90
2023-02-03T08:15:58.109Z,6.90
2023-02-03T08:18:25.175Z,6.94
2023-02-03T08:20:51.999Z,7.00
2023-02-03T08:23:18.779Z,7.00
2023-02-03T08:25:45.563Z,7.00
2023-02-03T08:28:12.325Z,7.10
2023-02-03T08:30:39.223Z,7.20
2023-02-03T08:33:05.986Z,7.20
2023-02-03T08:35:32.735Z,7.30
2023-02-03T08:37:59.408Z,7.36
2023-02-03T08:40:26.560Z,7.30
2023-02-03T08:42:53.424Z,7.38
2023-02-03T08:45:20.224Z,7.40
2023-02-03T08:47:46.993Z,7.50
2023-02-03T08:50:13.737Z,7.50
2023-02-03T08:52:40.783Z,7.50
2023-02-03T08:55:07.675Z,7.50
2023-02-03T08:57:36.040Z,7.60
2023-02-03T09:00:04.924Z,7.60
2023-02-03T09:02:32.102Z,7.60
2023-02-03T09:04:59.115Z,7.62
2023-02-03T09:07:26.682Z,7.66
2023-02-03T09:09:53.454Z,7.60
2023-02-03T09:12:20.183Z,7.64
2023-02-03T09:14:46.899Z,7.70
2023-02-03T09:17:13.661Z,7.76
2023-02-03T09:19:40.686Z,7.80
2023-02-03T09:22:07.450Z,7.80
2023-02-03T09:24:34.498Z,7.84
2023-02-03T09:27:01.610Z,7.80
2023-02-03T09:29:28.587Z,7.90
2023-02-03T09:31:55.485Z,7.90
2023-02-03T09:34:23.015Z,7.90
2023-02-03T09:36:51.584Z,7.90
2023-02-03T09:39:18.625Z,7.90
2023-02-03T09:42:07.078Z,7.90
2023-02-03T09:44:39.113Z,7.90
2023-02-03T09:47:20.861Z,7.90
2023-02-03T09:49:52.139Z,8.00
2023-02-03T09:52:24.937Z,8.02
2023-02-03T09:54:59.785Z,8.10
2023-02-03T09:57:30.007Z,8.10
2023-02-03T09:59:59.766Z,8.10
2023-02-03T10:02:50.139Z,8.10
2023-02-03T10:05:25.443Z,8.10
2023-02-03T10:08:04.384Z,8.10
2023-02-03T10:10:37.058Z,8.10
2023-02-03T10:13:22.740Z,8.02
2023-02-03T10:16:11.002Z,8.02
2023-02-03T10:18:45.796Z,8.10
2023-02-03T10:21:24.846Z,8.06
2023-02-03T10:23:55.185Z,8.10
2023-02-03T10:26:26.510Z,8.00
2023-02-03T10:29:03.682Z,8.00
2023-02-03T10:31:36.101Z,8.00
2023-02-03T10:34:14.819Z,8.00
2023-02-03T10:36:59.373Z,8.00
2023-02-03T10:39:41.121Z,8.04
2023-02-03T10:42:09.835Z,8.10
2023-02-03T10:44:58.624Z,8.10
2023-02-03T10:47:27.862Z,8.10
2023-02-03T10:49:57.189Z,8.14
2023-02-03T10:52:36.098Z,8.18
2023-02-03T10:55:27.131Z,8.20
2023-02-03T10:57:54.766Z,8.20
2023-02-03T11:00:32.660Z,8.20
2023-02-03T11:03:06.889Z,8.30
2023-02-03T11:05:34.350Z,8.30
2023-02-03T11:08:01.396Z,8.38
2023-02-03T11:10:29.612Z,8.40
2023-02-03T11:13:13.887Z,8.40
2023-02-03T11:15:54.318Z,8.48
2023-02-03T11:18:38.330Z,8.50
2023-02-03T11:21:42.742Z,8.48
2023-02-03T11:24:20.383Z,8.50
2023-02-03T11:27:19.341Z,8.60
2023-02-03T11:29:49.459Z,8.60
2023-02-03T11:32:35.134Z,8.60
2023-02-03T11:35:19.193Z,8.70
2023-02-03T11:37:48.737Z,8.70
2023-02-03T11:40:15.525Z,8.74
2023-02-03T11:42:59.317Z,8.80
2023-02-03T11:45:28.704Z,8.80
2023-02-03T11:48:10.484Z,8.80
2023-02-03T11:50:55.645Z,8.80
2023-02-03T11:53:47.797Z,8.82
2023-02-03T11:56:50.868Z,8.90
2023-02-03T11:59:26.314Z,8.90
2023-02-03T12:02:30.275Z,8.90
2023-02-03T12:05:12.939Z,8.90
2023-02-03T12:08:03.977Z,8.90
2023-02-03T12:10:52.320Z,8.90
2023-02-03T12:13:52.240Z,9.00
2023-02-03T12:16:28.047Z,9.00
2023-02-03T12:18:55.118Z,9.00
2023-02-03T12:21:43.508Z,9.00
2023-02-03T12:24:47.623Z,9.00
2023-02-03T12:27:17.178Z,9.04
2023-02-03T12:29:49.652Z,9.10
2023-02-03T12:32:29.206Z,9.10
2023-02-03T12:35:14.578Z,9.02
2023-02-03T12:38:07.221Z,9.00
2023-02-03T12:40:48.243Z,9.00
2023-02-03T12:43:27.351Z,9.00
2023-02-03T12:46:16.555Z,9.00
2023-02-03T12:49:02.393Z,9.00
2023-02-03T12:51:41.463Z,8.98
2023-02-03T12:54:32.441Z,8.90
2023-02-03T12:57:19.934Z,8.90
2023-02-03T13:00:11.367Z,8.80
2023-02-03T13:02:50.911Z,8.72
2023-02-03T13:05:26.783Z,8.70
2023-02-03T13:08:06.398Z,8.70
2023-02-03T13:10:55.179Z,8.60
2023-02-03T13:13:31.499Z,8.60
2023-02-03T13:16:00.836Z,8.50
2023-02-03T13:18:50.438Z,8.54
2023-02-03T13:21:17.104Z,8.50
2023-02-03T13:23:51.756Z,8.50
2023-02-03T13:26:48.712Z,8.52
2023-02-03T13:29:30.801Z,8.52
2023-02-03T13:32:19.140Z,8.60
2023-02-03T13:34:59.611Z,8.60
2023-02-03T13:37:48.467Z,8.60
2023-02-03T13:40:21.099Z,8.60
2023-02-03T13:43:03.358Z,8.60
2023-02-03T13:45:52.483Z,8.60
2023-02-03T13:48:27.244Z,8.62
2023-02-03T13:51:20.081Z,8.62
2023-02-03T13:53:48.814Z,8.70
2023-02-03T13:56:24.745Z,8.70
2023-02-03T13:59:00.592Z,8.70
2023-02-03T14:01:33.918Z,8.70
2023-02-03T14:04:01.704Z,8.70
2023-02-03T14:06:37.781Z,8.70
2023-02-03T14:09:38.248Z,8.70
2023-02-03T14:12:29.954Z,8.64
2023-02-03T14:15:04.589Z,8.62
2023-02-03T14:17:51.479Z,8.60
2023-02-03T14:20:27.597Z,8.60
2023-02-03T14:23:13.748Z,8.60
2023-02-03T14:25:42.136Z,8.50
2023-02-03T14:28:13.609Z,8.50
2023-02-03T14:31:10.712Z,8.50
2023-02-03T14:33:49.641Z,8.50
2023-02-03T14:36:47.967Z,8.50
2023-02-03T14:39:17.930Z,8.40
2023-02-03T14:42:06.089Z,8.30
2023-02-03T14:44:57.108Z,8.20
2023-02-03T14:47:27.023Z,8.20
2023-02-03T14:50:07.599Z,8.20
2023-02-03T14:52:47.870Z,8.10
2023-02-03T14:55:37.710Z,8.10
2023-02-03T14:58:16.649Z,8.00
2023-02-03T15:00:43.565Z,7.90
2023-02-03T15:03:10.275Z,7.88
2023-02-03T15:05:41.989Z,7.90
2023-02-03T15:08:30.850Z,7.90
2023-02-03T15:10:57.739Z,7.90
2023-02-03T15:13:30.329Z,7.80
2023-02-03T15:16:04.410Z,7.80
2023-02-03T15:18:37.627Z,7.70
2023-02-03T15:21:05.046Z,7.70
2023-02-03T15:23:43.243Z,7.68
2023-02-03T15:26:13.883Z,7.70
2023-02-03T15:28:40.870Z,7.60
2023-02-03T15:31:20.453Z,7.60
2023-02-03T15:33:50.088Z,7.52
2023-02-03T15:36:51.450Z,7.60
2023-02-03T15:39:39.052Z,7.52
2023-02-03T15:42:09.537Z,7.50
2023-02-03T15:45:01.011Z,7.50
2023-02-03T15:47:51.002Z,7.40
2023-02-03T15:50:32.117Z,7.40
2023-02-03T15:53:06.669Z,7.40
2023-02-03T15:55:40.544Z,7.36
2023-02-03T15:58:23.706Z,7.40
2023-02-03T16:00:56.957Z,7.40
2023-02-03T16:03:42.464Z,7.32
2023-02-03T16:06:11.900Z,7.30
2023-02-03T16:08:43.440Z,7.30
2023-02-03T16:11:40.019Z,7.30
2023-02-03T16:14:10.306Z,7.28
2023-02-03T16:17:04.484Z,7.30
2023-02-03T16:19:34.285Z,7.30
2023-02-03T16:22:01.250Z,7.30
2023-02-03T16:24:41.079Z,7.30
2023-02-03T16:27:27.381Z,7.30
2023-02-03T16:30:33.653Z,7.30
2023-02-03T16:33:28.982Z,7.30
2023-02-03T16:36:15.907Z,7.30
2023-02-03T16:39:09.029Z,7.38
2023-02-03T16:41:55.795Z,7.40
2023-02-03T16:44:41.328Z,7.40
2023-02-03T16:47:44.422Z,7.40
2023-02-03T16:50:41.101Z,7.40
2023-02-03T16:53:17.691Z,7.40
2023-02-03T16:55:44.780Z,7.50
2023-02-03T16:58:12.697Z,7.50
2023-02-03T17:00:41.950Z,7.46
2023-02-03T17:03:12.906Z,7.50
2023-02-03T17:05:41.360Z,7.50
2023-02-03T17:08:09.555Z,7.50
2023-02-03T17:10:37.592Z,7.50
2023-02-03T17:13:06.089Z,7.46
2023-02-03T17:15:33.361Z,7.50
2023-02-03T17:18:00.875Z,7.50
2023-02-03T17:20:27.632Z,7.40
2023-02-03T17:22:54.975Z,7.40
2023-02-03T17:25:22.672Z,7.40
2023-02-03T17:27:49.758Z,7.40
2023-02-03T17:30:17.253Z,7.38
2023-02-03T17:32:44.325Z,7.30
2023-02-03T17:35:12.180Z,7.30
2023-02-03T17:37:39.098Z,7.22
2023-02-03T17:54:06.773Z,7.10
2023-02-03T17:56:38.434Z,7.00
2023-02-03T17:59:06.228Z,7.00
2023-02-03T18:01:33.322Z,7.00
2023-02-03T18:04:03.414Z,7.00
2023-02-03T18:06:35.880Z,6.98
2023-02-03T18:09:05.809Z,6.94
2023-02-03T18:11:34.780Z,6.90
2023-02-03T18:14:01.742Z,6.90
2023-02-03T18:16:32.591Z,6.90
2023-02-03T18:19:03.766Z,6.90
2023-02-03T18:21:32.549Z,6.90
2023-02-03T18:24:01.918Z,6.88
2023-02-03T18:26:34.595Z,6.90
2023-02-03T18:29:01.633Z,6.84
2023-02-03T18:31:28.767Z,6.80
2023-02-03T18:33:56.029Z,6.80
2023-02-03T18:36:22.874Z,6.80
2023-02-03T18:38:49.620Z,6.80
2023-02-03T18:41:22.551Z,6.80
2023-02-03T18:43:49.911Z,6.76
2023-02-03T18:46:19.840Z,6.70
2023-02-03T18:48:46.833Z,6.64
2023-02-03T18:51:15.477Z,6.70
2023-02-03T18:53:45.045Z,6.70
2023-02-03T18:56:20.796Z,6.66
2023-02-03T18:58:47.992Z,6.62
2023-02-03T19:01:29.385Z,6.60
2023-02-03T19:03:58.401Z,6.62
2023-02-03T19:06:27.414Z,6.62
2023-02-03T19:08:54.241Z,6.66
2023-02-03T19:11:21.077Z,6.60
2023-02-03T19:13:48.176Z,6.60
2023-02-03T19:16:17.074Z,6.60
2023-02-03T19:18:44.994Z,6.56
2023-02-03T19:21:13.074Z,6.60
2023-02-03T19:23:40.970Z,6.52
2023-02-03T19:26:08.186Z,6.50
2023-02-03T19:28:35.491Z,6.52
2023-02-03T19:31:08.017Z,6.60
2023-02-03T19:33:36.406Z,6.56
2023-02-03T19:36:04.509Z,6.60
2023-02-03T19:38:31.551Z,6.60
2023-02-03T19:40:58.242Z,6.60
2023-02-03T19:43:25.013Z,6.60
2023-02-03T19:45:52.001Z,6.60
2023-02-03T19:48:19.703Z,6.50
2023-02-03T19:50:47.864Z,6.50
2023-02-03T19:53:16.145Z,6.50
2023-02-03T19:55:44.065Z,6.50
2023-02-03T19:58:12.191Z,6.50
2023-02-03T20:00:40.194Z,6.50
2023-02-03T20:03:07.119Z,6.50
2023-02-03T20:05:34.666Z,6.50
2023-02-03T20:08:01.710Z,6.40
2023-02-03T20:10:29.068Z,6.40
2023-02-03T20:12:56.036Z,6.46
2023-02-03T20:15:22.929Z,6.52
2023-02-03T20:17:49.702Z,6.50
2023-02-03T20:20:19.212Z,6.46
2023-02-03T20:22:47.401Z,6.40
2023-02-03T20:25:14.397Z,6.40
2023-02-03T20:27:41.489Z,6.36
2023-02-03T20:30:08.933Z,6.30
2023-02-03T20:32:36.483Z,6.30
2023-02-03T20:35:05.049Z,6.20
2023-02-03T20:37:32.765Z,6.20
2023-02-03T20:39:59.463Z,6.20
2023-02-03T20:42:26.103Z,6.20
2023-02-03T20:44:52.822Z,6.16
2023-02-03T20:47:19.640Z,6.16
2023-02-03T20:49:47.962Z,6.20
2023-02-03T20:52:17.357Z,6.10
2023-02-03T20:54:44.548Z,6.10
2023-02-03T20:57:17.453Z,6.10
2023-02-03T20:59:45.103Z,6.10
2023-02-03T21:02:51.370Z,6.10
2023-02-03T21:05:28.815Z,6.10
2023-02-03T21:07:55.469Z,6.20
2023-02-03T21:10:24.648Z,6.18
2023-02-03T21:12:52.107Z,6.20
2023-02-03T21:15:27.953Z,6.14
2023-02-03T21:17:54.920Z,6.20
2023-02-03T21:20:26.276Z,6.20
2023-02-03T21:22:53.412Z,6.20
2023-02-03T21:25:32.764Z,6.20
2023-02-03T21:28:00.782Z,6.10
2023-02-03T21:30:34.734Z,6.20
2023-02-03T21:33:28.082Z,6.10
2023-02-03T21:35:54.921Z,6.20
2023-02-03T21:38:28.117Z,6.20
2023-02-03T21:40:54.867Z,6.20
2023-02-03T21:43:24.162Z,6.20
2023-02-03T21:45:51.652Z,6.12
2023-02-03T21:48:30.914Z,6.10
2023-02-03T21:51:04.769Z,6.00
2023-02-03T21:53:35.779Z,6.00
2023-02-03T21:56:24.574Z,6.00
2023-02-03T21:58:53.754Z,6.04
2023-02-03T22:01:23.002Z,6.00
2023-02-03T22:03:52.364Z,6.00
2023-02-03T22:06:22.909Z,6.00
2023-02-03T22:08:57.855Z,6.00
2023-02-03T22:11:29.324Z,5.96
2023-02-03T22:13:57.024Z,5.96
2023-02-03T22:16:23.856Z,5.94
2023-02-03T22:18:51.119Z,5.90
2023-02-03T22:21:18.785Z,5.90
2023-02-03T22:23:46.240Z,5.90
2023-02-03T22:26:14.246Z,5.90
2023-02-03T22:28:41.425Z,5.90
2023-02-03T22:31:11.516Z,5.94
2023-02-03T22:33:39.444Z,5.96
2023-02-03T22:36:07.703Z,5.90
2023-02-03T22:38:35.105Z,5.86
2023-02-03T22:41:02.438Z,5.80
2023-02-03T22:43:31.031Z,5.80
2023-02-03T22:45:58.665Z,5.82
2023-02-03T22:48:25.385Z,5.80
2023-02-03T22:50:52.027Z,5.80
2023-02-03T22:53:19.130Z,5.80
2023-02-03T22:55:45.844Z,5.90
2023-02-03T22:58:12.817Z,5.90
2023-02-03T23:00:39.622Z,5.90
2023-02-03T23:03:06.703Z,5.90
2023-02-03T23:05:33.633Z,5.90
2023-02-03T23:08:01.449Z,5.90
2023-02-03T23:10:32.697Z,5.90
2023-02-03T23:13:00.886Z,5.90
2023-02-03T23:15:28.523Z,5.90
2023-02-03T23:17:55.457Z,5.86
2023-02-03T23:20:22.390Z,5.88
2023-02-03T23:22:49.193Z,5.80
2023-02-03T23:25:16.032Z,5.80
2023-02-03T23:27:42.839Z,5.80
2023-02-03T23:30:11.274Z,5.80
2023-02-03T23:32:38.346Z,5.80
2023-02-03T23:35:24.314Z,5.72
2023-02-03T23:37:51.033Z,5.70
2023-02-03T23:40:18.162Z,5.70
2023-02-03T23:42:44.923Z,5.64
2023-02-03T23:45:12.800Z,5.60
2023-02-03T23:47:40.881Z,5.60
2023-02-03T23:50:09.846Z,5.60
2023-02-03T23:52:37.208Z,5.60
2023-02-03T23:55:13.167Z,5.60
2023-02-03T23:57:42.726Z,5.60
